sensor_id;sensor_type;location;lat;lon;timestamp;P1;durP1;ratioP1;P2;durP2;ratioP2
79124;SDS011;68527;39.470;-0.376;2023-05-10T00:01:32;4.50;;;2.70;;
79124;SDS011;68527;39.470;-0.376;2023-05-10T00:06:22;4.00;;;2.60;;
79124;SDS011;68527;39.470;-0.376;2023-05-10T00:08:48;4.10;;;2.70;;
79124;SDS011;68527;39.470;-0.376;2023-05-10T00:13:39;3.50;;;2.30;;
79124;SDS011;68527;39.470;-0.376;2023-05-10T00:16:05;4.30;;;2.30;;
79124;SDS011;68527;39.470;-0.376;2023-05-10T00:18:31;4.10;;;2.20;;
79124;SDS011;68527;39.470;-0.376;2023-05-10T00:23:22;5.70;;;2.90;;
79124;SDS011;68527;39.470;-0.376;2023-05-10T00:25:47;4.50;;;2.30;;
79124;SDS011;68527;39.470;-0.376;2023-05-10T00:30:38;3.60;;;2.50;;
79124;SDS011;68527;39.470;-0.376;2023-05-10T00:33:04;2.50;;;2.10;;
79124;SDS011;68527;39.470;-0.376;2023-05-10T00:37:55;3.30;;;2.20;;
79124;SDS011;68527;39.470;-0.376;2023-05-10T00:42:46;3.60;;;2.30;;
79124;SDS011;68527;39.470;-0.376;2023-05-10T00:45:12;3.70;;;2.30;;
79124;SDS011;68527;39.470;-0.376;2023-05-10T00:50:02;4.10;;;1.90;;
79124;SDS011;68527;39.470;-0.376;2023-05-10T00:52:30;4.00;;;2.40;;
79124;SDS011;68527;39.470;-0.376;2023-05-10T00:54:55;3.20;;;2.00;;
79124;SDS011;68527;39.470;-0.376;2023-05-10T00:57:22;3.30;;;2.20;;
79124;SDS011;68527;39.470;-0.376;2023-05-10T00:59:47;3.00;;;2.20;;
79124;SDS011;68527;39.470;-0.376;2023-05-10T01:02:13;4.10;;;2.30;;
79124;SDS011;68527;39.470;-0.376;2023-05-10T01:04:39;3.20;;;2.30;;
79124;SDS011;68527;39.470;-0.376;2023-05-10T01:07:05;3.90;;;2.10;;
79124;SDS011;68527;39.470;-0.376;2023-05-10T01:09:31;2.80;;;1.90;;
79124;SDS011;68527;39.470;-0.376;2023-05-10T01:11:57;3.50;;;2.20;;
79124;SDS011;68527;39.470;-0.376;2023-05-10T01:14:23;3.40;;;2.30;;
79124;SDS011;68527;39.470;-0.376;2023-05-10T01:16:49;2.90;;;1.90;;
79124;SDS011;68527;39.470;-0.376;2023-05-10T01:19:25;4.00;;;2.30;;
79124;SDS011;68527;39.470;-0.376;2023-05-10T01:27:20;4.10;;;2.30;;
79124;SDS011;68527;39.470;-0.376;2023-05-10T01:32:45;2.50;;;2.00;;
79124;SDS011;68527;39.470;-0.376;2023-05-10T01:37:59;4.80;;;2.10;;
79124;SDS011;68527;39.470;-0.376;2023-05-10T01:40:42;2.50;;;1.80;;
79124;SDS011;68527;39.470;-0.376;2023-05-10T01:43:19;3.40;;;1.90;;
79124;SDS011;68527;39.470;-0.376;2023-05-10T01:45:54;3.30;;;2.10;;
79124;SDS011;68527;39.470;-0.376;2023-05-10T01:48:29;3.00;;;1.80;;
79124;SDS011;68527;39.470;-0.376;2023-05-10T01:50:55;3.70;;;2.10;;
79124;SDS011;68527;39.470;-0.376;2023-05-10T01:53:22;3.10;;;1.70;;
79124;SDS011;68527;39.470;-0.376;2023-05-10T01:55:48;3.10;;;2.00;;
79124;SDS011;68527;39.470;-0.376;2023-05-10T01:58:27;3.40;;;1.90;;
79124;SDS011;68527;39.470;-0.376;2023-05-10T02:00:54;4.00;;;2.10;;
79124;SDS011;68527;39.470;-0.376;2023-05-10T02:03:22;3.10;;;2.10;;
79124;SDS011;68527;39.470;-0.376;2023-05-10T02:05:49;3.90;;;2.30;;
79124;SDS011;68527;39.470;-0.376;2023-05-10T02:08:15;3.40;;;2.20;;
79124;SDS011;68527;39.470;-0.376;2023-05-10T02:10:42;2.90;;;1.60;;
79124;SDS011;68527;39.470;-0.376;2023-05-10T02:13:10;3.10;;;1.70;;
79124;SDS011;68527;39.470;-0.376;2023-05-10T02:15:36;3.30;;;2.30;;
79124;SDS011;68527;39.470;-0.376;2023-05-10T02:18:02;2.70;;;1.90;;
79124;SDS011;68527;39.470;-0.376;2023-05-10T02:20:29;3.10;;;2.10;;
79124;SDS011;68527;39.470;-0.376;2023-05-10T02:22:57;3.30;;;2.20;;
79124;SDS011;68527;39.470;-0.376;2023-05-10T02:25:23;2.20;;;1.80;;
79124;SDS011;68527;39.470;-0.376;2023-05-10T02:27:48;2.70;;;1.80;;
79124;SDS011;68527;39.470;-0.376;2023-05-10T02:30:15;3.00;;;1.90;;
79124;SDS011;68527;39.470;-0.376;2023-05-10T02:32:41;4.20;;;2.20;;
79124;SDS011;68527;39.470;-0.376;2023-05-10T02:35:08;4.00;;;1.90;;
79124;SDS011;68527;39.470;-0.376;2023-05-10T02:37:35;3.40;;;1.70;;
79124;SDS011;68527;39.470;-0.376;2023-05-10T02:40:02;2.80;;;2.00;;
79124;SDS011;68527;39.470;-0.376;2023-05-10T02:42:31;2.30;;;1.60;;
79124;SDS011;68527;39.470;-0.376;2023-05-10T02:45:02;2.80;;;1.80;;
79124;SDS011;68527;39.470;-0.376;2023-05-10T02:47:30;3.00;;;2.10;;
79124;SDS011;68527;39.470;-0.376;2023-05-10T02:49:56;2.70;;;1.70;;
79124;SDS011;68527;39.470;-0.376;2023-05-10T02:54:49;3.50;;;1.80;;
79124;SDS011;68527;39.470;-0.376;2023-05-10T02:57:16;2.90;;;1.90;;
79124;SDS011;68527;39.470;-0.376;2023-05-10T02:59:45;2.40;;;1.60;;
79124;SDS011;68527;39.470;-0.376;2023-05-10T03:04:40;2.40;;;1.60;;
79124;SDS011;68527;39.470;-0.376;2023-05-10T03:07:05;2.40;;;1.70;;
79124;SDS011;68527;39.470;-0.376;2023-05-10T03:09:31;2.40;;;1.60;;
79124;SDS011;68527;39.470;-0.376;2023-05-10T03:12:02;3.40;;;1.90;;
79124;SDS011;68527;39.470;-0.376;2023-05-10T03:17:30;2.50;;;1.40;;
79124;SDS011;68527;39.470;-0.376;2023-05-10T03:20:03;2.70;;;1.60;;
79124;SDS011;68527;39.470;-0.376;2023-05-10T03:22:34;2.60;;;1.60;;
79124;SDS011;68527;39.470;-0.376;2023-05-10T03:25:05;2.90;;;1.70;;
79124;SDS011;68527;39.470;-0.376;2023-05-10T03:27:32;2.80;;;1.70;;
79124;SDS011;68527;39.470;-0.376;2023-05-10T03:29:59;2.50;;;1.40;;
79124;SDS011;68527;39.470;-0.376;2023-05-10T03:32:25;4.40;;;2.20;;
79124;SDS011;68527;39.470;-0.376;2023-05-10T03:34:52;2.50;;;1.80;;
79124;SDS011;68527;39.470;-0.376;2023-05-10T03:39:43;3.20;;;2.00;;
79124;SDS011;68527;39.470;-0.376;2023-05-10T03:42:08;3.00;;;1.60;;
79124;SDS011;68527;39.470;-0.376;2023-05-10T03:44:36;2.80;;;1.60;;
79124;SDS011;68527;39.470;-0.376;2023-05-10T03:47:03;4.50;;;2.00;;
79124;SDS011;68527;39.470;-0.376;2023-05-10T03:49:29;2.70;;;1.90;;
79124;SDS011;68527;39.470;-0.376;2023-05-10T03:54:20;3.60;;;2.20;;
79124;SDS011;68527;39.470;-0.376;2023-05-10T03:56:45;2.30;;;1.30;;
79124;SDS011;68527;39.470;-0.376;2023-05-10T03:59:13;3.80;;;1.90;;
79124;SDS011;68527;39.470;-0.376;2023-05-10T04:01:38;3.60;;;1.80;;
79124;SDS011;68527;39.470;-0.376;2023-05-10T04:04:04;2.90;;;1.80;;
79124;SDS011;68527;39.470;-0.376;2023-05-10T04:08:56;2.60;;;1.60;;
79124;SDS011;68527;39.470;-0.376;2023-05-10T04:11:24;3.30;;;2.10;;
79124;SDS011;68527;39.470;-0.376;2023-05-10T04:13:50;4.10;;;2.10;;
79124;SDS011;68527;39.470;-0.376;2023-05-10T04:16:16;4.70;;;2.30;;
79124;SDS011;68527;39.470;-0.376;2023-05-10T04:18:41;3.20;;;1.80;;
79124;SDS011;68527;39.470;-0.376;2023-05-10T04:23:39;4.10;;;1.90;;
79124;SDS011;68527;39.470;-0.376;2023-05-10T04:26:04;2.90;;;1.90;;
79124;SDS011;68527;39.470;-0.376;2023-05-10T04:28:30;4.40;;;2.10;;
79124;SDS011;68527;39.470;-0.376;2023-05-10T04:31:05;4.20;;;2.10;;
79124;SDS011;68527;39.470;-0.376;2023-05-10T04:33:32;3.20;;;1.90;;
79124;SDS011;68527;39.470;-0.376;2023-05-10T04:35:58;3.50;;;2.00;;
79124;SDS011;68527;39.470;-0.376;2023-05-10T04:38:24;3.90;;;1.60;;
79124;SDS011;68527;39.470;-0.376;2023-05-10T04:40:49;4.60;;;2.20;;
79124;SDS011;68527;39.470;-0.376;2023-05-10T04:43:15;4.10;;;2.10;;
79124;SDS011;68527;39.470;-0.376;2023-05-10T04:45:40;3.90;;;2.20;;
79124;SDS011;68527;39.470;-0.376;2023-05-10T04:50:32;5.60;;;2.00;;
79124;SDS011;68527;39.470;-0.376;2023-05-10T04:52:58;4.40;;;2.10;;
79124;SDS011;68527;39.470;-0.376;2023-05-10T04:55:24;2.90;;;1.90;;
79124;SDS011;68527;39.470;-0.376;2023-05-10T04:57:50;3.00;;;1.90;;
79124;SDS011;68527;39.470;-0.376;2023-05-10T05:00:16;2.80;;;2.10;;
79124;SDS011;68527;39.470;-0.376;2023-05-10T05:02:42;3.20;;;2.20;;
79124;SDS011;68527;39.470;-0.376;2023-05-10T05:05:10;3.10;;;2.00;;
79124;SDS011;68527;39.470;-0.376;2023-05-10T05:07:36;4.10;;;1.90;;
79124;SDS011;68527;39.470;-0.376;2023-05-10T05:10:02;3.50;;;2.10;;
79124;SDS011;68527;39.470;-0.376;2023-05-10T05:12:28;4.30;;;2.10;;
79124;SDS011;68527;39.470;-0.376;2023-05-10T05:14:54;4.20;;;1.90;;
79124;SDS011;68527;39.470;-0.376;2023-05-10T05:19:45;3.90;;;2.10;;
79124;SDS011;68527;39.470;-0.376;2023-05-10T05:22:10;3.10;;;1.80;;
79124;SDS011;68527;39.470;-0.376;2023-05-10T05:27:03;3.20;;;1.60;;
79124;SDS011;68527;39.470;-0.376;2023-05-10T05:29:29;4.40;;;1.90;;
79124;SDS011;68527;39.470;-0.376;2023-05-10T05:31:54;3.30;;;2.10;;
79124;SDS011;68527;39.470;-0.376;2023-05-10T05:34:20;3.50;;;2.20;;
79124;SDS011;68527;39.470;-0.376;2023-05-10T05:36:46;4.80;;;2.40;;
79124;SDS011;68527;39.470;-0.376;2023-05-10T05:39:12;3.80;;;2.60;;
79124;SDS011;68527;39.470;-0.376;2023-05-10T05:41:38;4.20;;;2.20;;
79124;SDS011;68527;39.470;-0.376;2023-05-10T05:44:03;3.40;;;2.20;;
79124;SDS011;68527;39.470;-0.376;2023-05-10T05:46:29;3.00;;;2.30;;
79124;SDS011;68527;39.470;-0.376;2023-05-10T05:51:20;4.90;;;2.20;;
79124;SDS011;68527;39.470;-0.376;2023-05-10T05:53:46;5.10;;;2.70;;
79124;SDS011;68527;39.470;-0.376;2023-05-10T05:56:11;5.60;;;2.50;;
79124;SDS011;68527;39.470;-0.376;2023-05-10T05:58:37;4.10;;;2.40;;
79124;SDS011;68527;39.470;-0.376;2023-05-10T06:01:03;5.60;;;2.50;;
79124;SDS011;68527;39.470;-0.376;2023-05-10T06:03:28;3.90;;;2.60;;
79124;SDS011;68527;39.470;-0.376;2023-05-10T06:05:54;6.40;;;3.20;;
79124;SDS011;68527;39.470;-0.376;2023-05-10T06:10:45;6.60;;;2.80;;
79124;SDS011;68527;39.470;-0.376;2023-05-10T06:13:11;6.00;;;2.80;;
79124;SDS011;68527;39.470;-0.376;2023-05-10T06:15:37;6.90;;;3.20;;
79124;SDS011;68527;39.470;-0.376;2023-05-10T06:18:03;4.80;;;2.70;;
79124;SDS011;68527;39.470;-0.376;2023-05-10T06:20:28;12.00;;;3.10;;
79124;SDS011;68527;39.470;-0.376;2023-05-10T06:22:56;8.70;;;3.40;;
79124;SDS011;68527;39.470;-0.376;2023-05-10T06:25:22;8.80;;;3.30;;
79124;SDS011;68527;39.470;-0.376;2023-05-10T06:27:48;8.70;;;2.80;;
79124;SDS011;68527;39.470;-0.376;2023-05-10T06:30:14;7.90;;;3.10;;
79124;SDS011;68527;39.470;-0.376;2023-05-10T06:32:40;8.70;;;2.80;;
79124;SDS011;68527;39.470;-0.376;2023-05-10T06:35:09;8.90;;;2.80;;
79124;SDS011;68527;39.470;-0.376;2023-05-10T06:37:34;12.20;;;2.90;;
79124;SDS011;68527;39.470;-0.376;2023-05-10T06:40:00;11.70;;;2.80;;
79124;SDS011;68527;39.470;-0.376;2023-05-10T06:42:25;8.80;;;2.90;;
79124;SDS011;68527;39.470;-0.376;2023-05-10T06:44:52;7.70;;;2.70;;
79124;SDS011;68527;39.470;-0.376;2023-05-10T06:47:18;7.00;;;2.40;;
79124;SDS011;68527;39.470;-0.376;2023-05-10T06:49:43;7.40;;;2.50;;
79124;SDS011;68527;39.470;-0.376;2023-05-10T06:52:09;7.10;;;2.70;;
79124;SDS011;68527;39.470;-0.376;2023-05-10T06:57:00;9.60;;;2.20;;
79124;SDS011;68527;39.470;-0.376;2023-05-10T07:01:51;7.60;;;2.70;;
79124;SDS011;68527;39.470;-0.376;2023-05-10T07:04:16;6.40;;;2.30;;
79124;SDS011;68527;39.470;-0.376;2023-05-10T07:06:42;6.60;;;2.40;;
79124;SDS011;68527;39.470;-0.376;2023-05-10T07:09:08;5.60;;;2.20;;
79124;SDS011;68527;39.470;-0.376;2023-05-10T07:11:34;6.90;;;2.30;;
79124;SDS011;68527;39.470;-0.376;2023-05-10T07:14:00;6.30;;;2.20;;
79124;SDS011;68527;39.470;-0.376;2023-05-10T07:16:26;5.10;;;2.50;;
79124;SDS011;68527;39.470;-0.376;2023-05-10T07:18:51;8.20;;;2.30;;
79124;SDS011;68527;39.470;-0.376;2023-05-10T07:21:18;6.50;;;2.50;;
79124;SDS011;68527;39.470;-0.376;2023-05-10T07:23:44;7.70;;;2.40;;
79124;SDS011;68527;39.470;-0.376;2023-05-10T07:26:09;6.40;;;2.20;;
79124;SDS011;68527;39.470;-0.376;2023-05-10T07:28:35;6.60;;;2.20;;
79124;SDS011;68527;39.470;-0.376;2023-05-10T07:31:02;7.00;;;2.10;;
79124;SDS011;68527;39.470;-0.376;2023-05-10T07:33:28;6.80;;;2.10;;
79124;SDS011;68527;39.470;-0.376;2023-05-10T07:35:53;4.20;;;1.90;;
79124;SDS011;68527;39.470;-0.376;2023-05-10T07:38:19;5.10;;;1.90;;
79124;SDS011;68527;39.470;-0.376;2023-05-10T07:40:45;4.10;;;1.70;;
79124;SDS011;68527;39.470;-0.376;2023-05-10T07:43:10;6.50;;;2.20;;
79124;SDS011;68527;39.470;-0.376;2023-05-10T07:45:35;5.10;;;2.00;;
79124;SDS011;68527;39.470;-0.376;2023-05-10T07:48:01;5.70;;;1.80;;
79124;SDS011;68527;39.470;-0.376;2023-05-10T07:50:27;4.00;;;1.70;;
79124;SDS011;68527;39.470;-0.376;2023-05-10T07:52:52;4.40;;;2.30;;
79124;SDS011;68527;39.470;-0.376;2023-05-10T07:55:18;3.00;;;1.80;;
79124;SDS011;68527;39.470;-0.376;2023-05-10T07:57:46;6.10;;;2.20;;
79124;SDS011;68527;39.470;-0.376;2023-05-10T08:00:12;4.80;;;2.10;;
79124;SDS011;68527;39.470;-0.376;2023-05-10T08:02:38;5.40;;;1.80;;
79124;SDS011;68527;39.470;-0.376;2023-05-10T08:05:05;5.10;;;2.20;;
79124;SDS011;68527;39.470;-0.376;2023-05-10T08:07:31;3.30;;;1.70;;
79124;SDS011;68527;39.470;-0.376;2023-05-10T08:09:57;4.10;;;1.80;;
79124;SDS011;68527;39.470;-0.376;2023-05-10T08:12:23;3.60;;;1.60;;
79124;SDS011;68527;39.470;-0.376;2023-05-10T08:14:48;5.10;;;1.60;;
79124;SDS011;68527;39.470;-0.376;2023-05-10T08:17:14;4.10;;;1.60;;
79124;SDS011;68527;39.470;-0.376;2023-05-10T08:19:40;3.70;;;1.60;;
79124;SDS011;68527;39.470;-0.376;2023-05-10T08:22:05;4.10;;;1.60;;
79124;SDS011;68527;39.470;-0.376;2023-05-10T08:24:31;2.90;;;1.30;;
79124;SDS011;68527;39.470;-0.376;2023-05-10T08:26:57;4.20;;;1.60;;
79124;SDS011;68527;39.470;-0.376;2023-05-10T08:29:23;3.10;;;1.40;;
79124;SDS011;68527;39.470;-0.376;2023-05-10T08:31:48;4.50;;;1.80;;
79124;SDS011;68527;39.470;-0.376;2023-05-10T08:34:14;4.70;;;1.60;;
79124;SDS011;68527;39.470;-0.376;2023-05-10T08:36:40;4.40;;;1.80;;
79124;SDS011;68527;39.470;-0.376;2023-05-10T08:39:06;2.60;;;1.60;;
79124;SDS011;68527;39.470;-0.376;2023-05-10T08:41:31;4.10;;;1.70;;
79124;SDS011;68527;39.470;-0.376;2023-05-10T08:43:58;4.90;;;1.50;;
79124;SDS011;68527;39.470;-0.376;2023-05-10T08:46:26;5.20;;;1.90;;
79124;SDS011;68527;39.470;-0.376;2023-05-10T08:48:52;5.40;;;1.40;;
79124;SDS011;68527;39.470;-0.376;2023-05-10T08:51:24;5.50;;;1.40;;
79124;SDS011;68527;39.470;-0.376;2023-05-10T08:53:51;4.10;;;1.50;;
79124;SDS011;68527;39.470;-0.376;2023-05-10T08:56:17;7.10;;;1.60;;
79124;SDS011;68527;39.470;-0.376;2023-05-10T08:58:44;3.50;;;1.70;;
79124;SDS011;68527;39.470;-0.376;2023-05-10T09:01:10;4.80;;;1.60;;
79124;SDS011;68527;39.470;-0.376;2023-05-10T09:03:38;3.10;;;1.60;;
79124;SDS011;68527;39.470;-0.376;2023-05-10T09:06:04;4.80;;;1.40;;
79124;SDS011;68527;39.470;-0.376;2023-05-10T09:08:30;3.50;;;1.50;;
79124;SDS011;68527;39.470;-0.376;2023-05-10T09:10:56;3.50;;;2.00;;
79124;SDS011;68527;39.470;-0.376;2023-05-10T09:13:22;3.50;;;1.70;;
79124;SDS011;68527;39.470;-0.376;2023-05-10T09:15:49;3.00;;;1.70;;
79124;SDS011;68527;39.470;-0.376;2023-05-10T09:18:15;4.30;;;1.60;;
79124;SDS011;68527;39.470;-0.376;2023-05-10T09:20:41;2.20;;;1.30;;
79124;SDS011;68527;39.470;-0.376;2023-05-10T09:23:07;3.40;;;1.60;;
79124;SDS011;68527;39.470;-0.376;2023-05-10T09:25:32;3.90;;;1.50;;
79124;SDS011;68527;39.470;-0.376;2023-05-10T09:27:58;3.30;;;1.70;;
79124;SDS011;68527;39.470;-0.376;2023-05-10T09:30:25;3.80;;;1.60;;
79124;SDS011;68527;39.470;-0.376;2023-05-10T09:32:52;2.70;;;1.50;;
79124;SDS011;68527;39.470;-0.376;2023-05-10T09:35:19;3.10;;;1.40;;
79124;SDS011;68527;39.470;-0.376;2023-05-10T09:37:47;3.10;;;1.70;;
79124;SDS011;68527;39.470;-0.376;2023-05-10T09:43:05;3.40;;;1.70;;
79124;SDS011;68527;39.470;-0.376;2023-05-10T09:45:32;3.40;;;2.00;;
79124;SDS011;68527;39.470;-0.376;2023-05-10T09:47:59;3.40;;;1.50;;
79124;SDS011;68527;39.470;-0.376;2023-05-10T09:50:26;3.30;;;1.40;;
79124;SDS011;68527;39.470;-0.376;2023-05-10T09:52:53;4.50;;;1.20;;
79124;SDS011;68527;39.470;-0.376;2023-05-10T09:55:19;2.80;;;1.50;;
79124;SDS011;68527;39.470;-0.376;2023-05-10T09:57:50;4.00;;;1.40;;
79124;SDS011;68527;39.470;-0.376;2023-05-10T10:00:24;4.70;;;1.50;;
79124;SDS011;68527;39.470;-0.376;2023-05-10T10:02:56;5.80;;;1.70;;
79124;SDS011;68527;39.470;-0.376;2023-05-10T10:05:32;3.10;;;1.40;;
79124;SDS011;68527;39.470;-0.376;2023-05-10T10:08:01;2.70;;;1.60;;
79124;SDS011;68527;39.470;-0.376;2023-05-10T10:10:28;3.00;;;1.50;;
79124;SDS011;68527;39.470;-0.376;2023-05-10T10:12:54;3.60;;;1.50;;
79124;SDS011;68527;39.470;-0.376;2023-05-10T10:15:20;2.50;;;1.50;;
79124;SDS011;68527;39.470;-0.376;2023-05-10T10:17:47;4.50;;;1.80;;
79124;SDS011;68527;39.470;-0.376;2023-05-10T10:20:14;3.00;;;1.40;;
79124;SDS011;68527;39.470;-0.376;2023-05-10T10:22:40;3.60;;;1.60;;
79124;SDS011;68527;39.470;-0.376;2023-05-10T10:25:08;3.60;;;1.60;;
79124;SDS011;68527;39.470;-0.376;2023-05-10T10:27:48;2.90;;;1.30;;
79124;SDS011;68527;39.470;-0.376;2023-05-10T10:30:33;3.90;;;1.50;;
79124;SDS011;68527;39.470;-0.376;2023-05-10T10:36:06;3.90;;;1.30;;
79124;SDS011;68527;39.470;-0.376;2023-05-10T10:52:24;2.40;;;1.40;;
79124;SDS011;68527;39.470;-0.376;2023-05-10T10:57:31;2.70;;;1.30;;
79124;SDS011;68527;39.470;-0.376;2023-05-10T11:02:46;2.80;;;1.80;;
79124;SDS011;68527;39.470;-0.376;2023-05-10T11:10:38;4.50;;;1.50;;
79124;SDS011;68527;39.470;-0.376;2023-05-10T11:13:06;4.00;;;1.20;;
79124;SDS011;68527;39.470;-0.376;2023-05-10T11:15:33;3.90;;;1.20;;
79124;SDS011;68527;39.470;-0.376;2023-05-10T11:18:00;3.60;;;1.20;;
79124;SDS011;68527;39.470;-0.376;2023-05-10T11:20:57;2.80;;;1.20;;
79124;SDS011;68527;39.470;-0.376;2023-05-10T11:23:23;2.40;;;1.30;;
79124;SDS011;68527;39.470;-0.376;2023-05-10T11:25:49;3.10;;;1.20;;
79124;SDS011;68527;39.470;-0.376;2023-05-10T11:28:16;3.80;;;1.30;;
79124;SDS011;68527;39.470;-0.376;2023-05-10T11:30:44;3.10;;;1.10;;
79124;SDS011;68527;39.470;-0.376;2023-05-10T11:33:14;3.80;;;1.40;;
79124;SDS011;68527;39.470;-0.376;2023-05-10T11:35:41;2.40;;;1.30;;
79124;SDS011;68527;39.470;-0.376;2023-05-10T11:38:07;3.90;;;1.40;;
79124;SDS011;68527;39.470;-0.376;2023-05-10T11:40:34;3.60;;;1.10;;
79124;SDS011;68527;39.470;-0.376;2023-05-10T11:43:00;2.40;;;1.10;;
79124;SDS011;68527;39.470;-0.376;2023-05-10T11:45:26;3.00;;;1.00;;
79124;SDS011;68527;39.470;-0.376;2023-05-10T11:47:54;2.40;;;1.30;;
79124;SDS011;68527;39.470;-0.376;2023-05-10T11:50:20;2.30;;;1.20;;
79124;SDS011;68527;39.470;-0.376;2023-05-10T11:52:45;3.70;;;1.20;;
79124;SDS011;68527;39.470;-0.376;2023-05-10T11:55:16;2.20;;;1.20;;
79124;SDS011;68527;39.470;-0.376;2023-05-10T11:57:42;4.40;;;1.20;;
79124;SDS011;68527;39.470;-0.376;2023-05-10T12:00:10;3.10;;;1.40;;
79124;SDS011;68527;39.470;-0.376;2023-05-10T12:02:36;4.10;;;1.40;;
79124;SDS011;68527;39.470;-0.376;2023-05-10T12:05:02;2.90;;;1.30;;
79124;SDS011;68527;39.470;-0.376;2023-05-10T12:07:28;2.80;;;1.00;;
79124;SDS011;68527;39.470;-0.376;2023-05-10T12:10:05;2.90;;;1.10;;
79124;SDS011;68527;39.470;-0.376;2023-05-10T12:12:35;3.50;;;1.50;;
79124;SDS011;68527;39.470;-0.376;2023-05-10T12:15:21;4.40;;;1.20;;
79124;SDS011;68527;39.470;-0.376;2023-05-10T12:17:48;2.00;;;1.20;;
79124;SDS011;68527;39.470;-0.376;2023-05-10T12:20:15;3.50;;;1.30;;
79124;SDS011;68527;39.470;-0.376;2023-05-10T12:25:18;3.60;;;1.20;;
79124;SDS011;68527;39.470;-0.376;2023-05-10T12:27:48;2.90;;;1.30;;
79124;SDS011;68527;39.470;-0.376;2023-05-10T12:30:23;2.90;;;1.30;;
79124;SDS011;68527;39.470;-0.376;2023-05-10T12:32:50;2.50;;;1.30;;
79124;SDS011;68527;39.470;-0.376;2023-05-10T12:35:16;3.70;;;1.40;;
79124;SDS011;68527;39.470;-0.376;2023-05-10T12:37:45;2.00;;;1.10;;
79124;SDS011;68527;39.470;-0.376;2023-05-10T12:40:11;3.60;;;1.50;;
79124;SDS011;68527;39.470;-0.376;2023-05-10T12:42:37;3.60;;;1.40;;
79124;SDS011;68527;39.470;-0.376;2023-05-10T12:45:04;2.80;;;1.30;;
79124;SDS011;68527;39.470;-0.376;2023-05-10T12:47:31;4.00;;;1.20;;
79124;SDS011;68527;39.470;-0.376;2023-05-10T12:49:57;3.00;;;1.20;;
79124;SDS011;68527;39.470;-0.376;2023-05-10T12:52:24;3.60;;;1.20;;
79124;SDS011;68527;39.470;-0.376;2023-05-10T12:54:50;3.30;;;1.20;;
79124;SDS011;68527;39.470;-0.376;2023-05-10T12:57:16;6.10;;;1.60;;
79124;SDS011;68527;39.470;-0.376;2023-05-10T12:59:41;2.90;;;1.10;;
79124;SDS011;68527;39.470;-0.376;2023-05-10T13:02:08;3.20;;;1.20;;
79124;SDS011;68527;39.470;-0.376;2023-05-10T13:04:34;5.10;;;1.40;;
79124;SDS011;68527;39.470;-0.376;2023-05-10T13:07:00;4.90;;;1.60;;
79124;SDS011;68527;39.470;-0.376;2023-05-10T13:09:27;3.50;;;1.30;;
79124;SDS011;68527;39.470;-0.376;2023-05-10T13:11:54;4.40;;;1.60;;
79124;SDS011;68527;39.470;-0.376;2023-05-10T13:14:20;3.90;;;1.50;;
79124;SDS011;68527;39.470;-0.376;2023-05-10T13:16:46;3.90;;;1.40;;
79124;SDS011;68527;39.470;-0.376;2023-05-10T13:19:15;2.90;;;1.40;;
79124;SDS011;68527;39.470;-0.376;2023-05-10T13:21:41;3.00;;;1.60;;
79124;SDS011;68527;39.470;-0.376;2023-05-10T13:24:07;3.10;;;1.10;;
79124;SDS011;68527;39.470;-0.376;2023-05-10T13:26:33;6.30;;;1.60;;
79124;SDS011;68527;39.470;-0.376;2023-05-10T13:28:59;3.20;;;1.20;;
79124;SDS011;68527;39.470;-0.376;2023-05-10T13:31:25;5.60;;;1.30;;
79124;SDS011;68527;39.470;-0.376;2023-05-10T13:33:50;3.80;;;1.30;;
79124;SDS011;68527;39.470;-0.376;2023-05-10T13:36:16;4.30;;;1.60;;
79124;SDS011;68527;39.470;-0.376;2023-05-10T13:38:42;2.80;;;1.30;;
79124;SDS011;68527;39.470;-0.376;2023-05-10T13:41:07;3.20;;;1.30;;
79124;SDS011;68527;39.470;-0.376;2023-05-10T13:43:33;6.30;;;1.40;;
79124;SDS011;68527;39.470;-0.376;2023-05-10T13:45:58;3.20;;;1.50;;
79124;SDS011;68527;39.470;-0.376;2023-05-10T13:48:24;3.70;;;1.20;;
79124;SDS011;68527;39.470;-0.376;2023-05-10T13:50:49;6.10;;;1.70;;
79124;SDS011;68527;39.470;-0.376;2023-05-10T13:53:15;4.20;;;1.40;;
79124;SDS011;68527;39.470;-0.376;2023-05-10T13:55:41;3.00;;;1.20;;
79124;SDS011;68527;39.470;-0.376;2023-05-10T13:58:06;4.80;;;1.50;;
79124;SDS011;68527;39.470;-0.376;2023-05-10T14:00:39;2.80;;;1.20;;
79124;SDS011;68527;39.470;-0.376;2023-05-10T14:03:05;4.80;;;1.40;;
79124;SDS011;68527;39.470;-0.376;2023-05-10T14:05:32;4.60;;;1.60;;
79124;SDS011;68527;39.470;-0.376;2023-05-10T14:07:57;6.40;;;1.70;;
79124;SDS011;68527;39.470;-0.376;2023-05-10T14:10:23;3.40;;;1.10;;
79124;SDS011;68527;39.470;-0.376;2023-05-10T14:12:49;4.30;;;1.50;;
79124;SDS011;68527;39.470;-0.376;2023-05-10T14:15:15;3.20;;;1.60;;
79124;SDS011;68527;39.470;-0.376;2023-05-10T14:17:40;4.30;;;1.60;;
79124;SDS011;68527;39.470;-0.376;2023-05-10T14:20:06;5.50;;;1.80;;
79124;SDS011;68527;39.470;-0.376;2023-05-10T14:22:32;3.80;;;1.30;;
79124;SDS011;68527;39.470;-0.376;2023-05-10T14:24:58;3.30;;;1.20;;
79124;SDS011;68527;39.470;-0.376;2023-05-10T14:27:23;4.80;;;1.50;;
79124;SDS011;68527;39.470;-0.376;2023-05-10T14:29:49;5.10;;;1.50;;
79124;SDS011;68527;39.470;-0.376;2023-05-10T14:32:15;3.70;;;1.50;;
79124;SDS011;68527;39.470;-0.376;2023-05-10T14:34:40;4.30;;;1.40;;
79124;SDS011;68527;39.470;-0.376;2023-05-10T14:37:06;5.20;;;1.30;;
79124;SDS011;68527;39.470;-0.376;2023-05-10T14:39:31;4.60;;;1.70;;
79124;SDS011;68527;39.470;-0.376;2023-05-10T14:41:58;6.20;;;1.60;;
79124;SDS011;68527;39.470;-0.376;2023-05-10T14:44:23;3.80;;;1.50;;
79124;SDS011;68527;39.470;-0.376;2023-05-10T14:46:50;5.20;;;1.80;;
79124;SDS011;68527;39.470;-0.376;2023-05-10T14:49:15;4.10;;;1.40;;
79124;SDS011;68527;39.470;-0.376;2023-05-10T14:51:41;6.40;;;1.70;;
79124;SDS011;68527;39.470;-0.376;2023-05-10T14:54:07;5.00;;;1.30;;
79124;SDS011;68527;39.470;-0.376;2023-05-10T14:56:32;5.70;;;1.40;;
79124;SDS011;68527;39.470;-0.376;2023-05-10T14:58:58;4.90;;;1.40;;
79124;SDS011;68527;39.470;-0.376;2023-05-10T15:01:25;5.00;;;1.30;;
79124;SDS011;68527;39.470;-0.376;2023-05-10T15:03:50;4.00;;;1.50;;
79124;SDS011;68527;39.470;-0.376;2023-05-10T15:06:16;5.10;;;1.30;;
79124;SDS011;68527;39.470;-0.376;2023-05-10T15:08:42;4.90;;;1.40;;
79124;SDS011;68527;39.470;-0.376;2023-05-10T15:11:08;3.10;;;1.70;;
79124;SDS011;68527;39.470;-0.376;2023-05-10T15:13:34;4.00;;;1.30;;
79124;SDS011;68527;39.470;-0.376;2023-05-10T15:16:00;4.80;;;1.20;;
79124;SDS011;68527;39.470;-0.376;2023-05-10T15:18:26;3.30;;;1.50;;
79124;SDS011;68527;39.470;-0.376;2023-05-10T15:20:51;5.50;;;1.40;;
79124;SDS011;68527;39.470;-0.376;2023-05-10T15:23:17;5.20;;;1.40;;
79124;SDS011;68527;39.470;-0.376;2023-05-10T15:25:43;5.40;;;1.60;;
79124;SDS011;68527;39.470;-0.376;2023-05-10T15:28:08;5.20;;;1.70;;
79124;SDS011;68527;39.470;-0.376;2023-05-10T15:30:34;4.80;;;1.60;;
79124;SDS011;68527;39.470;-0.376;2023-05-10T15:32:59;4.40;;;1.30;;
79124;SDS011;68527;39.470;-0.376;2023-05-10T15:35:25;4.60;;;1.50;;
79124;SDS011;68527;39.470;-0.376;2023-05-10T15:37:51;5.10;;;1.30;;
79124;SDS011;68527;39.470;-0.376;2023-05-10T15:40:17;3.70;;;1.00;;
79124;SDS011;68527;39.470;-0.376;2023-05-10T15:42:43;6.60;;;1.50;;
79124;SDS011;68527;39.470;-0.376;2023-05-10T15:45:11;4.10;;;1.00;;
79124;SDS011;68527;39.470;-0.376;2023-05-10T15:47:37;3.80;;;1.40;;
79124;SDS011;68527;39.470;-0.376;2023-05-10T15:50:05;5.50;;;1.20;;
79124;SDS011;68527;39.470;-0.376;2023-05-10T15:52:32;4.30;;;1.20;;
79124;SDS011;68527;39.470;-0.376;2023-05-10T15:54:57;4.20;;;1.40;;
79124;SDS011;68527;39.470;-0.376;2023-05-10T15:57:23;5.00;;;1.10;;
79124;SDS011;68527;39.470;-0.376;2023-05-10T15:59:49;4.30;;;1.40;;
79124;SDS011;68527;39.470;-0.376;2023-05-10T16:02:15;7.50;;;1.30;;
79124;SDS011;68527;39.470;-0.376;2023-05-10T16:04:43;5.00;;;1.30;;
79124;SDS011;68527;39.470;-0.376;2023-05-10T16:07:09;4.70;;;1.10;;